sensor_id;sensor_type;location;lat;lon;timestamp;pressure;altitude;pressure_sealevel;temperature;humidity
62889;BME280;48980;41.704;-8.820;2022-07-06T00:01:14;101664.34;;;18.83;100.00
62889;BME280;48980;41.704;-8.820;2022-07-06T00:03:14;101663.72;;;18.81;100.00
62889;BME280;48980;41.704;-8.820;2022-07-06T00:05:16;101650.59;;;18.78;100.00
62889;BME280;48980;41.704;-8.820;2022-07-06T00:07:16;101663.63;;;18.90;100.00
62889;BME280;48980;41.704;-8.820;2022-07-06T00:09:17;101653.84;;;18.89;100.00
62889;BME280;48980;41.704;-8.820;2022-07-06T00:11:22;101659.88;;;18.91;100.00
62889;BME280;48980;41.704;-8.820;2022-07-06T00:13:23;101671.06;;;18.88;100.00
62889;BME280;48980;41.704;-8.820;2022-07-06T00:15:24;101666.69;;;18.87;100.00
62889;BME280;48980;41.704;-8.820;2022-07-06T00:17:25;101679.44;;;18.93;100.00
62889;BME280;48980;41.704;-8.820;2022-07-06T00:19:25;101666.97;;;18.92;100.00
62889;BME280;48980;41.704;-8.820;2022-07-06T00:21:26;101668.16;;;18.89;100.00
62889;BME280;48980;41.704;-8.820;2022-07-06T00:23:27;101670.69;;;18.91;100.00
62889;BME280;48980;41.704;-8.820;2022-07-06T00:25:28;101667.53;;;18.87;100.00
62889;BME280;48980;41.704;-8.820;2022-07-06T00:27:28;101667.72;;;18.86;100.00
62889;BME280;48980;41.704;-8.820;2022-07-06T00:29:29;101657.28;;;18.82;100.00
62889;BME280;48980;41.704;-8.820;2022-07-06T00:31:30;101660.28;;;18.88;100.00
62889;BME280;48980;41.704;-8.820;2022-07-06T00:33:32;101664.34;;;18.83;100.00
62889;BME280;48980;41.704;-8.820;2022-07-06T00:35:33;101669.75;;;18.83;100.00
62889;BME280;48980;41.704;-8.820;2022-07-06T00:37:34;101667.16;;;18.75;100.00
62889;BME280;48980;41.704;-8.820;2022-07-06T00:39:35;101665.38;;;18.82;100.00
62889;BME280;48980;41.704;-8.820;2022-07-06T00:41:36;101664.47;;;18.75;100.00
62889;BME280;48980;41.704;-8.820;2022-07-06T00:43:47;101655.47;;;18.68;100.00
62889;BME280;48980;41.704;-8.820;2022-07-06T00:45:47;101658.88;;;18.77;100.00
62889;BME280;48980;41.704;-8.820;2022-07-06T00:47:48;101665.88;;;18.71;100.00
62889;BME280;48980;41.704;-8.820;2022-07-06T00:49:49;101677.19;;;18.81;100.00
62889;BME280;48980;41.704;-8.820;2022-07-06T00:52:09;101677.78;;;18.77;100.00
62889;BME280;48980;41.704;-8.820;2022-07-06T00:54:10;101687.34;;;18.79;100.00
62889;BME280;48980;41.704;-8.820;2022-07-06T00:56:11;101687.47;;;18.71;100.00
62889;BME280;48980;41.704;-8.820;2022-07-06T00:58:13;101672.22;;;18.63;100.00
62889;BME280;48980;41.704;-8.820;2022-07-06T01:00:17;101685.69;;;18.63;100.00
62889;BME280;48980;41.704;-8.820;2022-07-06T01:02:18;101695.09;;;18.52;100.00
62889;BME280;48980;41.704;-8.820;2022-07-06T01:04:19;101697.31;;;18.49;100.00
62889;BME280;48980;41.704;-8.820;2022-07-06T01:06:19;101697.22;;;18.42;100.00
62889;BME280;48980;41.704;-8.820;2022-07-06T01:08:20;101697.97;;;18.36;100.00
62889;BME280;48980;41.704;-8.820;2022-07-06T01:10:21;101692.19;;;18.39;100.00
62889;BME280;48980;41.704;-8.820;2022-07-06T01:12:23;101694.91;;;18.39;100.00
62889;BME280;48980;41.704;-8.820;2022-07-06T01:14:24;101686.16;;;18.37;100.00
62889;BME280;48980;41.704;-8.820;2022-07-06T01:16:25;101681.25;;;18.41;100.00
62889;BME280;48980;41.704;-8.820;2022-07-06T01:18:26;101677.88;;;18.38;100.00
62889;BME280;48980;41.704;-8.820;2022-07-06T01:20:29;101685.94;;;18.23;100.00
62889;BME280;48980;41.704;-8.820;2022-07-06T01:22:30;101683.34;;;18.15;100.00
62889;BME280;48980;41.704;-8.820;2022-07-06T01:24:30;101680.38;;;18.10;100.00
62889;BME280;48980;41.704;-8.820;2022-07-06T01:26:31;101681.00;;;18.12;100.00
62889;BME280;48980;41.704;-8.820;2022-07-06T01:28:32;101678.66;;;18.09;100.00
62889;BME280;48980;41.704;-8.820;2022-07-06T01:30:33;101676.34;;;18.06;100.00
62889;BME280;48980;41.704;-8.820;2022-07-06T01:32:35;101679.03;;;18.06;100.00
62889;BME280;48980;41.704;-8.820;2022-07-06T01:34:36;101678.72;;;18.01;100.00
62889;BME280;48980;41.704;-8.820;2022-07-06T01:36:37;101679.22;;;18.04;100.00
62889;BME280;48980;41.704;-8.820;2022-07-06T01:38:49;101684.09;;;18.01;100.00
62889;BME280;48980;41.704;-8.820;2022-07-06T01:40:50;101680.06;;;18.05;100.00
62889;BME280;48980;41.704;-8.820;2022-07-06T01:42:50;101688.50;;;18.02;100.00
62889;BME280;48980;41.704;-8.820;2022-07-06T01:44:53;101683.97;;;18.02;100.00
62889;BME280;48980;41.704;-8.820;2022-07-06T01:46:54;101689.16;;;18.04;100.00
62889;BME280;48980;41.704;-8.820;2022-07-06T01:48:55;101682.09;;;18.03;100.00
62889;BME280;48980;41.704;-8.820;2022-07-06T01:50:56;101687.50;;;18.03;100.00
62889;BME280;48980;41.704;-8.820;2022-07-06T01:52:59;101690.03;;;17.96;100.00
62889;BME280;48980;41.704;-8.820;2022-07-06T01:55:01;101700.00;;;17.95;100.00
62889;BME280;48980;41.704;-8.820;2022-07-06T01:57:04;101698.50;;;17.93;100.00
62889;BME280;48980;41.704;-8.820;2022-07-06T01:59:05;101702.03;;;17.93;100.00
62889;BME280;48980;41.704;-8.820;2022-07-06T02:01:09;101693.84;;;17.87;100.00
62889;BME280;48980;41.704;-8.820;2022-07-06T02:03:11;101696.00;;;17.91;100.00
62889;BME280;48980;41.704;-8.820;2022-07-06T02:05:12;101699.81;;;17.97;100.00
62889;BME280;48980;41.704;-8.820;2022-07-06T02:07:13;101696.59;;;18.02;100.00
62889;BME280;48980;41.704;-8.820;2022-07-06T02:09:14;101699.03;;;18.11;100.00
62889;BME280;48980;41.704;-8.820;2022-07-06T02:11:16;101709.09;;;18.18;100.00
62889;BME280;48980;41.704;-8.820;2022-07-06T02:13:18;101706.22;;;18.19;100.00
62889;BME280;48980;41.704;-8.820;2022-07-06T02:15:19;101700.38;;;18.31;100.00
62889;BME280;48980;41.704;-8.820;2022-07-06T02:17:19;101706.06;;;18.36;100.00
62889;BME280;48980;41.704;-8.820;2022-07-06T02:19:20;101694.53;;;18.42;100.00
62889;BME280;48980;41.704;-8.820;2022-07-06T02:21:21;101697.22;;;18.42;100.00
62889;BME280;48980;41.704;-8.820;2022-07-06T02:23:22;101697.31;;;18.34;100.00
62889;BME280;48980;41.704;-8.820;2022-07-06T02:25:25;101697.69;;;18.31;100.00
62889;BME280;48980;41.704;-8.820;2022-07-06T02:27:26;101691.94;;;18.34;100.00
62889;BME280;48980;41.704;-8.820;2022-07-06T02:29:27;101696.03;;;18.30;100.00
62889;BME280;48980;41.704;-8.820;2022-07-06T02:31:28;101691.44;;;18.30;100.00
62889;BME280;48980;41.704;-8.820;2022-07-06T02:33:29;101696.84;;;18.30;100.00
62889;BME280;48980;41.704;-8.820;2022-07-06T02:35:30;101693.38;;;18.21;100.00
62889;BME280;48980;41.704;-8.820;2022-07-06T02:37:30;101691.97;;;18.10;100.00
62889;BME280;48980;41.704;-8.820;2022-07-06T02:39:31;101692.81;;;18.11;100.00
62889;BME280;48980;41.704;-8.820;2022-07-06T02:41:32;101689.09;;;18.12;100.00
62889;BME280;48980;41.704;-8.820;2022-07-06T02:43:33;101684.06;;;18.09;100.00
62889;BME280;48980;41.704;-8.820;2022-07-06T02:45:34;101682.31;;;18.16;100.00
62889;BME280;48980;41.704;-8.820;2022-07-06T02:47:35;101692.03;;;18.41;100.00
62889;BME280;48980;41.704;-8.820;2022-07-06T02:49:37;101703.19;;;18.52;100.00
62889;BME280;48980;41.704;-8.820;2022-07-06T02:51:38;101703.47;;;18.58;100.00
62889;BME280;48980;41.704;-8.820;2022-07-06T02:53:39;101702.53;;;18.65;100.00
62889;BME280;48980;41.704;-8.820;2022-07-06T02:55:41;101688.19;;;18.65;100.00
62889;BME280;48980;41.704;-8.820;2022-07-06T02:57:42;101690.56;;;18.68;100.00
62889;BME280;48980;41.704;-8.820;2022-07-06T02:59:43;101687.84;;;18.68;100.00
62889;BME280;48980;41.704;-8.820;2022-07-06T03:07:11;101694.44;;;18.80;100.00
62889;BME280;48980;41.704;-8.820;2022-07-06T03:09:13;101693.41;;;18.81;100.00
62889;BME280;48980;41.704;-8.820;2022-07-06T03:11:14;101707.50;;;18.77;100.00
62889;BME280;48980;41.704;-8.820;2022-07-06T03:13:15;101705.34;;;18.72;100.00
62889;BME280;48980;41.704;-8.820;2022-07-06T03:15:16;101721.06;;;18.68;100.00
62889;BME280;48980;41.704;-8.820;2022-07-06T03:17:19;101718.91;;;18.64;100.00
62889;BME280;48980;41.704;-8.820;2022-07-06T03:19:23;101721.81;;;18.62;100.00
62889;BME280;48980;41.704;-8.820;2022-07-06T03:21:24;101715.47;;;18.55;100.00
62889;BME280;48980;41.704;-8.820;2022-07-06T03:23:25;101726.47;;;18.53;100.00
62889;BME280;48980;41.704;-8.820;2022-07-06T03:25:26;101727.50;;;18.52;100.00
62889;BME280;48980;41.704;-8.820;2022-07-06T03:27:28;101727.94;;;18.41;100.00
62889;BME280;48980;41.704;-8.820;2022-07-06T03:29:28;101719.72;;;18.34;100.00
62889;BME280;48980;41.704;-8.820;2022-07-06T03:31:30;101720.59;;;18.35;100.00
62889;BME280;48980;41.704;-8.820;2022-07-06T03:33:31;101710.44;;;18.37;100.00
62889;BME280;48980;41.704;-8.820;2022-07-06T03:35:32;101723.53;;;18.25;100.00
62889;BME280;48980;41.704;-8.820;2022-07-06T03:37:34;101724.81;;;18.14;100.00
62889;BME280;48980;41.704;-8.820;2022-07-06T03:39:35;101719.44;;;18.14;100.00
62889;BME280;48980;41.704;-8.820;2022-07-06T03:41:37;101716.78;;;18.06;100.00
62889;BME280;48980;41.704;-8.820;2022-07-06T03:43:38;101713.72;;;18.09;100.00
62889;BME280;48980;41.704;-8.820;2022-07-06T03:45:39;101719.69;;;18.04;100.00
62889;BME280;48980;41.704;-8.820;2022-07-06T03:47:40;101721.72;;;18.02;100.00
62889;BME280;48980;41.704;-8.820;2022-07-06T03:49:41;101717.66;;;17.98;100.00
62889;BME280;48980;41.704;-8.820;2022-07-06T03:51:43;101721.53;;;18.04;100.00
62889;BME280;48980;41.704;-8.820;2022-07-06T03:53:44;101736.06;;;17.94;100.00
62889;BME280;48980;41.704;-8.820;2022-07-06T03:55:45;101722.28;;;17.89;100.00
62889;BME280;48980;41.704;-8.820;2022-07-06T03:58:06;101726.88;;;17.80;100.00
62889;BME280;48980;41.704;-8.820;2022-07-06T04:00:08;101729.25;;;17.83;100.00
62889;BME280;48980;41.704;-8.820;2022-07-06T04:02:14;101722.06;;;17.76;100.00
62889;BME280;48980;41.704;-8.820;2022-07-06T04:04:16;101720.03;;;17.78;100.00
62889;BME280;48980;41.704;-8.820;2022-07-06T04:06:19;101724.75;;;17.76;100.00
62889;BME280;48980;41.704;-8.820;2022-07-06T04:08:20;101727.81;;;17.73;100.00
62889;BME280;48980;41.704;-8.820;2022-07-06T04:10:26;101720.25;;;17.68;100.00
62889;BME280;48980;41.704;-8.820;2022-07-06T04:12:30;101726.53;;;17.60;100.00
62889;BME280;48980;41.704;-8.820;2022-07-06T04:14:31;101727.50;;;17.67;100.00
62889;BME280;48980;41.704;-8.820;2022-07-06T04:16:32;101731.03;;;17.68;100.00
62889;BME280;48980;41.704;-8.820;2022-07-06T04:18:34;101731.88;;;17.68;100.00
62889;BME280;48980;41.704;-8.820;2022-07-06T04:20:35;101725.22;;;17.56;100.00
62889;BME280;48980;41.704;-8.820;2022-07-06T04:22:38;101726.56;;;17.52;100.00
62889;BME280;48980;41.704;-8.820;2022-07-06T04:24:38;101734.66;;;17.52;100.00
62889;BME280;48980;41.704;-8.820;2022-07-06T04:26:39;101735.44;;;17.61;100.00
62889;BME280;48980;41.704;-8.820;2022-07-06T04:28:40;101737.91;;;17.71;100.00
62889;BME280;48980;41.704;-8.820;2022-07-06T04:30:42;101729.50;;;17.74;100.00
62889;BME280;48980;41.704;-8.820;2022-07-06T04:32:46;101725.59;;;17.76;100.00
62889;BME280;48980;41.704;-8.820;2022-07-06T04:34:48;101736.19;;;17.78;100.00
62889;BME280;48980;41.704;-8.820;2022-07-06T04:36:48;101734.41;;;17.70;100.00
62889;BME280;48980;41.704;-8.820;2022-07-06T04:38:49;101729.72;;;17.64;100.00
62889;BME280;48980;41.704;-8.820;2022-07-06T04:40:50;101726.56;;;17.52;100.00
62889;BME280;48980;41.704;-8.820;2022-07-06T04:42:52;101727.94;;;17.56;100.00
62889;BME280;48980;41.704;-8.820;2022-07-06T04:44:54;101733.13;;;17.58;100.00
62889;BME280;48980;41.704;-8.820;2022-07-06T04:46:55;101729.59;;;17.57;100.00
62889;BME280;48980;41.704;-8.820;2022-07-06T04:48:57;101727.25;;;17.54;100.00
62889;BME280;48980;41.704;-8.820;2022-07-06T04:51:02;101732.16;;;17.50;100.00
62889;BME280;48980;41.704;-8.820;2022-07-06T04:53:03;101731.97;;;17.52;100.00
62889;BME280;48980;41.704;-8.820;2022-07-06T04:55:07;101732.31;;;17.49;100.00
62889;BME280;48980;41.704;-8.820;2022-07-06T04:57:09;101730.00;;;17.46;100.00
62889;BME280;48980;41.704;-8.820;2022-07-06T04:59:10;101727.50;;;17.44;100.00
62889;BME280;48980;41.704;-8.820;2022-07-06T05:01:10;101742.50;;;17.38;100.00
62889;BME280;48980;41.704;-8.820;2022-07-06T05:03:11;101725.72;;;17.28;100.00
62889;BME280;48980;41.704;-8.820;2022-07-06T05:05:12;101731.31;;;17.18;100.00
62889;BME280;48980;41.704;-8.820;2022-07-06T05:07:13;101733.50;;;17.15;100.00
62889;BME280;48980;41.704;-8.820;2022-07-06T05:09:13;101738.91;;;17.15;100.00
62889;BME280;48980;41.704;-8.820;2022-07-06T05:11:15;101743.63;;;17.13;100.00
62889;BME280;48980;41.704;-8.820;2022-07-06T05:13:16;101740.63;;;17.07;100.00
62889;BME280;48980;41.704;-8.820;2022-07-06T05:15:18;101742.44;;;17.15;100.00
62889;BME280;48980;41.704;-8.820;2022-07-06T05:17:19;101739.91;;;17.14;100.00
62889;BME280;48980;41.704;-8.820;2022-07-06T05:19:20;101736.25;;;17.06;100.00
62889;BME280;48980;41.704;-8.820;2022-07-06T05:21:22;101730.56;;;17.01;100.00
62889;BME280;48980;41.704;-8.820;2022-07-06T05:23:23;101736.25;;;17.06;100.00
62889;BME280;48980;41.704;-8.820;2022-07-06T05:25:24;101736.25;;;17.06;100.00
62889;BME280;48980;41.704;-8.820;2022-07-06T05:27:25;101739.59;;;17.17;100.00
62889;BME280;48980;41.704;-8.820;2022-07-06T05:29:27;101740.78;;;17.14;100.00
62889;BME280;48980;41.704;-8.820;2022-07-06T05:31:28;101741.25;;;17.18;100.00
62889;BME280;48980;41.704;-8.820;2022-07-06T05:33:30;101735.00;;;17.25;100.00
62889;BME280;48980;41.704;-8.820;2022-07-06T05:35:31;101743.09;;;17.25;100.00
62889;BME280;48980;41.704;-8.820;2022-07-06T05:37:32;101735.66;;;17.28;100.00
62889;BME280;48980;41.704;-8.820;2022-07-06T05:39:34;101749.06;;;17.36;100.00
62889;BME280;48980;41.704;-8.820;2022-07-06T05:41:34;101735.44;;;17.37;100.00
62889;BME280;48980;41.704;-8.820;2022-07-06T05:43:36;101747.00;;;17.46;100.00
62889;BME280;48980;41.704;-8.820;2022-07-06T05:45:37;101745.50;;;17.44;100.00
62889;BME280;48980;41.704;-8.820;2022-07-06T05:47:38;101743.47;;;17.46;100.00
62889;BME280;48980;41.704;-8.820;2022-07-06T05:49:58;101753.53;;;17.52;100.00
62889;BME280;48980;41.704;-8.820;2022-07-06T05:52:18;101752.84;;;17.58;100.00
62889;BME280;48980;41.704;-8.820;2022-07-06T05:54:19;101741.69;;;17.61;100.00
62889;BME280;48980;41.704;-8.820;2022-07-06T05:56:22;101739.66;;;17.63;100.00
62889;BME280;48980;41.704;-8.820;2022-07-06T05:58:23;101742.41;;;17.78;100.00
62889;BME280;48980;41.704;-8.820;2022-07-06T06:00:27;101749.00;;;17.99;100.00
62889;BME280;48980;41.704;-8.820;2022-07-06T06:02:42;101743.06;;;18.12;100.00
62889;BME280;48980;41.704;-8.820;2022-07-06T06:04:47;101759.16;;;18.20;100.00
62889;BME280;48980;41.704;-8.820;2022-07-06T06:06:48;101753.66;;;18.29;100.00
62889;BME280;48980;41.704;-8.820;2022-07-06T06:08:50;101758.72;;;18.32;100.00
62889;BME280;48980;41.704;-8.820;2022-07-06T06:10:52;101759.53;;;18.32;100.00
62889;BME280;48980;41.704;-8.820;2022-07-06T06:12:55;101760.69;;;18.38;100.00
62889;BME280;48980;41.704;-8.820;2022-07-06T06:14:56;101753.25;;;18.40;100.00
62889;BME280;48980;41.704;-8.820;2022-07-06T06:17:00;101773.16;;;18.39;100.00
62889;BME280;48980;41.704;-8.820;2022-07-06T06:19:00;101760.78;;;18.45;100.00
62889;BME280;48980;41.704;-8.820;2022-07-06T06:21:31;101770.28;;;18.56;100.00
62889;BME280;48980;41.704;-8.820;2022-07-06T06:23:32;101776.81;;;18.61;100.00
62889;BME280;48980;41.704;-8.820;2022-07-06T06:25:35;101775.91;;;18.69;100.00
62889;BME280;48980;41.704;-8.820;2022-07-06T06:27:36;101780.28;;;18.85;100.00
62889;BME280;48980;41.704;-8.820;2022-07-06T06:39:43;101781.22;;;21.03;100.00
62889;BME280;48980;41.704;-8.820;2022-07-06T06:41:43;101792.88;;;20.97;100.00
62889;BME280;48980;41.704;-8.820;2022-07-06T06:43:44;101789.53;;;20.95;100.00
62889;BME280;48980;41.704;-8.820;2022-07-06T06:45:48;101797.75;;;21.15;100.00
62889;BME280;48980;41.704;-8.820;2022-07-06T06:47:49;101798.69;;;21.91;100.00
62889;BME280;48980;41.704;-8.820;2022-07-06T06:49:50;101809.50;;;22.99;100.00
62889;BME280;48980;41.704;-8.820;2022-07-06T06:51:51;101805.91;;;23.71;100.00
62889;BME280;48980;41.704;-8.820;2022-07-06T06:53:51;101815.31;;;24.58;100.00
62889;BME280;48980;41.704;-8.820;2022-07-06T06:55:52;101813.34;;;24.47;100.00
62889;BME280;48980;41.704;-8.820;2022-07-06T06:57:53;101812.94;;;24.43;100.00
62889;BME280;48980;41.704;-8.820;2022-07-06T06:59:54;101820.34;;;25.36;100.00
62889;BME280;48980;41.704;-8.820;2022-07-06T07:01:54;101821.69;;;26.73;100.00
62889;BME280;48980;41.704;-8.820;2022-07-06T07:03:55;101821.00;;;28.34;100.00
62889;BME280;48980;41.704;-8.820;2022-07-06T07:05:56;101823.13;;;29.28;100.00
62889;BME280;48980;41.704;-8.820;2022-07-06T07:07:58;101813.91;;;31.18;100.00
62889;BME280;48980;41.704;-8.820;2022-07-06T07:09:59;101820.13;;;31.67;100.00
62889;BME280;48980;41.704;-8.820;2022-07-06T07:12:00;101826.50;;;32.40;82.77
62889;BME280;48980;41.704;-8.820;2022-07-06T07:14:01;101815.66;;;33.36;56.18
62889;BME280;48980;41.704;-8.820;2022-07-06T07:16:02;101817.06;;;33.78;54.15
62889;BME280;48980;41.704;-8.820;2022-07-06T07:18:03;101827.50;;;33.86;43.74
62889;BME280;48980;41.704;-8.820;2022-07-06T07:20:04;101821.28;;;34.89;36.85
62889;BME280;48980;41.704;-8.820;2022-07-06T07:22:05;101821.91;;;34.32;35.98
62889;BME280;48980;41.704;-8.820;2022-07-06T07:24:06;101834.81;;;34.12;35.99
62889;BME280;48980;41.704;-8.820;2022-07-06T07:26:07;101825.47;;;35.49;34.43
62889;BME280;48980;41.704;-8.820;2022-07-06T07:28:08;101829.97;;;35.25;33.18
62889;BME280;48980;41.704;-8.820;2022-07-06T07:30:10;101823.22;;;34.88;32.96
62889;BME280;48980;41.704;-8.820;2022-07-06T07:32:11;101817.22;;;35.24;31.82
62889;BME280;48980;41.704;-8.820;2022-07-06T07:34:11;101816.88;;;35.69;30.42
62889;BME280;48980;41.704;-8.820;2022-07-06T07:36:12;101826.78;;;35.90;31.10
62889;BME280;48980;41.704;-8.820;2022-07-06T07:38:13;101821.25;;;35.51;30.49
62889;BME280;48980;41.704;-8.820;2022-07-06T07:40:14;101826.88;;;35.08;31.10
62889;BME280;48980;41.704;-8.820;2022-07-06T07:42:14;101823.06;;;35.04;31.98
62889;BME280;48980;41.704;-8.820;2022-07-06T07:44:16;101821.88;;;35.29;31.09
62889;BME280;48980;41.704;-8.820;2022-07-06T07:46:17;101823.69;;;35.39;31.08
62889;BME280;48980;41.704;-8.820;2022-07-06T07:48:17;101822.66;;;35.73;29.81
62889;BME280;48980;41.704;-8.820;2022-07-06T07:50:18;101828.94;;;35.60;31.01
62889;BME280;48980;41.704;-8.820;2022-07-06T07:52:19;101822.81;;;34.76;31.53
62889;BME280;48980;41.704;-8.820;2022-07-06T07:54:20;101836.34;;;34.53;31.63
62889;BME280;48980;41.704;-8.820;2022-07-06T07:56:20;101832.84;;;35.15;31.68
62889;BME280;48980;41.704;-8.820;2022-07-06T07:58:21;101834.41;;;35.65;30.22
62889;BME280;48980;41.704;-8.820;2022-07-06T08:00:22;101840.72;;;35.84;29.74
62889;BME280;48980;41.704;-8.820;2022-07-06T08:02:23;101843.88;;;36.30;30.29
62889;BME280;48980;41.704;-8.820;2022-07-06T08:04:23;101842.19;;;36.62;29.46
62889;BME280;48980;41.704;-8.820;2022-07-06T08:06:25;101837.56;;;36.72;29.10
62889;BME280;48980;41.704;-8.820;2022-07-06T08:08:25;101836.63;;;37.41;27.38
62889;BME280;48980;41.704;-8.820;2022-07-06T08:10:26;101830.44;;;36.65;28.51
62889;BME280;48980;41.704;-8.820;2022-07-06T08:12:27;101831.97;;;37.28;28.11
62889;BME280;48980;41.704;-8.820;2022-07-06T08:14:28;101840.63;;;37.63;28.35
62889;BME280;48980;41.704;-8.820;2022-07-06T08:16:29;101829.00;;;38.06;27.50
62889;BME280;48980;41.704;-8.820;2022-07-06T08:18:29;101835.06;;;38.08;27.44
62889;BME280;48980;41.704;-8.820;2022-07-06T08:20:30;101834.53;;;38.38;26.50
62889;BME280;48980;41.704;-8.820;2022-07-06T08:22:31;101840.56;;;38.31;25.80
62889;BME280;48980;41.704;-8.820;2022-07-06T08:24:33;101847.81;;;37.64;27.31
62889;BME280;48980;41.704;-8.820;2022-07-06T08:26:34;101842.09;;;37.46;27.29
62889;BME280;48980;41.704;-8.820;2022-07-06T08:28:35;101852.66;;;36.65;28.05
62889;BME280;48980;41.704;-8.820;2022-07-06T08:30:36;101845.44;;;36.50;28.99
62889;BME280;48980;41.704;-8.820;2022-07-06T08:32:41;101846.50;;;37.47;26.92
62889;BME280;48980;41.704;-8.820;2022-07-06T08:34:41;101849.03;;;37.72;26.84
62889;BME280;48980;41.704;-8.820;2022-07-06T08:36:44;101846.59;;;39.23;25.11
62889;BME280;48980;41.704;-8.820;2022-07-06T08:38:45;101852.09;;;38.79;25.05
62889;BME280;48980;41.704;-8.820;2022-07-06T08:40:49;101845.69;;;38.06;25.00
62889;BME280;48980;41.704;-8.820;2022-07-06T08:42:53;101845.63;;;37.97;26.30
62889;BME280;48980;41.704;-8.820;2022-07-06T08:44:55;101848.41;;;39.10;24.79
62889;BME280;48980;41.704;-8.820;2022-07-06T08:46:58;101847.91;;;40.14;23.25
62889;BME280;48980;41.704;-8.820;2022-07-06T08:49:05;101856.06;;;40.19;24.90
62889;BME280;48980;41.704;-8.820;2022-07-06T08:51:07;101852.59;;;40.40;23.41
62889;BME280;48980;41.704;-8.820;2022-07-06T08:53:07;101851.69;;;40.00;22.81
62889;BME280;48980;41.704;-8.820;2022-07-06T08:55:09;101851.06;;;39.68;23.34
62889;BME280;48980;41.704;-8.820;2022-07-06T08:57:10;101850.75;;;39.87;23.77
62889;BME280;48980;41.704;-8.820;2022-07-06T08:59:11;101855.53;;;37.90;25.48
62889;BME280;48980;41.704;-8.820;2022-07-06T09:01:12;101847.53;;;37.97;26.13
62889;BME280;48980;41.704;-8.820;2022-07-06T09:03:13;101852.84;;;39.29;25.11
62889;BME280;48980;41.704;-8.820;2022-07-06T09:05:14;101861.88;;;39.78;23.01
62889;BME280;48980;41.704;-8.820;2022-07-06T09:07:17;101852.22;;;39.85;24.15
62889;BME280;48980;41.704;-8.820;2022-07-06T09:09:23;101861.66;;;39.13;24.62
62889;BME280;48980;41.704;-8.820;2022-07-06T09:11:24;101863.88;;;38.76;24.67
62889;BME280;48980;41.704;-8.820;2022-07-06T09:13:28;101864.09;;;38.48;25.59
62889;BME280;48980;41.704;-8.820;2022-07-06T09:15:28;101856.72;;;38.20;25.98
62889;BME280;48980;41.704;-8.820;2022-07-06T09:17:29;101864.16;;;38.65;24.75
62889;BME280;48980;41.704;-8.820;2022-07-06T09:19:31;101857.13;;;39.70;24.21
62889;BME280;48980;41.704;-8.820;2022-07-06T09:21:32;101857.66;;;39.90;23.59
62889;BME280;48980;41.704;-8.820;2022-07-06T09:23:37;101856.97;;;41.10;22.04
62889;BME280;48980;41.704;-8.820;2022-07-06T09:25:38;101854.69;;;40.43;23.72
62889;BME280;48980;41.704;-8.820;2022-07-06T09:27:40;101856.00;;;41.90;20.86
62889;BME280;48980;41.704;-8.820;2022-07-06T09:29:41;101862.41;;;41.36;21.95
62889;BME280;48980;41.704;-8.820;2022-07-06T09:31:45;101862.34;;;41.66;21.34
62889;BME280;48980;41.704;-8.820;2022-07-06T09:35:56;101873.06;;;40.91;23.04
62889;BME280;48980;41.704;-8.820;2022-07-06T09:38:08;101870.91;;;41.18;21.86
62889;BME280;48980;41.704;-8.820;2022-07-06T09:40:18;101859.59;;;39.89;24.84
62889;BME280;48980;41.704;-8.820;2022-07-06T09:42:24;101863.84;;;39.25;25.39
62889;BME280;48980;41.704;-8.820;2022-07-06T09:44:34;101864.22;;;38.11;27.34
62889;BME280;48980;41.704;-8.820;2022-07-06T09:46:41;101866.66;;;37.90;27.39
62889;BME280;48980;41.704;-8.820;2022-07-06T09:48:42;101863.38;;;37.14;28.87
62889;BME280;48980;41.704;-8.820;2022-07-06T09:51:04;101866.75;;;36.55;29.66
62889;BME280;48980;41.704;-8.820;2022-07-06T09:53:07;101858.44;;;37.11;30.00
62889;BME280;48980;41.704;-8.820;2022-07-06T09:55:14;101860.13;;;37.35;29.71
62889;BME280;48980;41.704;-8.820;2022-07-06T09:57:16;101862.38;;;38.70;28.25
62889;BME280;48980;41.704;-8.820;2022-07-06T09:59:22;101871.63;;;38.24;28.28
62889;BME280;48980;41.704;-8.820;2022-07-06T10:01:26;101862.88;;;39.56;26.89
62889;BME280;48980;41.704;-8.820;2022-07-06T10:03:27;101866.66;;;39.60;25.54
62889;BME280;48980;41.704;-8.820;2022-07-06T10:05:29;101872.41;;;38.88;26.96
62889;BME280;48980;41.704;-8.820;2022-07-06T10:07:31;101873.34;;;39.33;26.94
62889;BME280;48980;41.704;-8.820;2022-07-06T10:09:33;101878.75;;;39.20;26.46
62889;BME280;48980;41.704;-8.820;2022-07-06T10:11:44;101877.28;;;39.76;25.94
62889;BME280;48980;41.704;-8.820;2022-07-06T10:13:47;101876.75;;;40.18;25.09
62889;BME280;48980;41.704;-8.820;2022-07-06T10:15:49;101876.78;;;40.65;24.07
62889;BME280;48980;41.704;-8.820;2022-07-06T10:17:50;101879.22;;;40.76;24.85
62889;BME280;48980;41.704;-8.820;2022-07-06T10:19:51;101880.06;;;39.32;25.55
62889;BME280;48980;41.704;-8.820;2022-07-06T10:21:53;101879.22;;;39.05;26.92
62889;BME280;48980;41.704;-8.820;2022-07-06T10:23:54;101876.91;;;38.03;27.84
62889;BME280;48980;41.704;-8.820;2022-07-06T10:25:57;101880.84;;;37.65;28.18
62889;BME280;48980;41.704;-8.820;2022-07-06T10:27:59;101874.66;;;37.32;28.62
62889;BME280;48980;41.704;-8.820;2022-07-06T10:30:00;101874.66;;;37.32;28.88
62889;BME280;48980;41.704;-8.820;2022-07-06T10:32:02;101874.09;;;37.58;28.42
62889;BME280;48980;41.704;-8.820;2022-07-06T10:34:06;101875.94;;;38.62;25.65
62889;BME280;48980;41.704;-8.820;2022-07-06T10:36:07;101876.09;;;38.57;26.35
62889;BME280;48980;41.704;-8.820;2022-07-06T10:38:09;101872.41;;;38.88;25.32
62889;BME280;48980;41.704;-8.820;2022-07-06T10:40:13;101879.53;;;39.12;25.91
62889;BME280;48980;41.704;-8.820;2022-07-06T10:42:40;101883.34;;;40.04;25.93